sensor_id;sensor_type;location;lat;lon;timestamp;temperature;humidity
75380;HTU21D;65641;44.714;37.756;2023-10-19T00:00:51;10.71;68.58
75380;HTU21D;65641;44.714;37.756;2023-10-19T00:01:58;10.70;68.57
75380;HTU21D;65641;44.714;37.756;2023-10-19T00:03:02;10.68;68.49
75380;HTU21D;65641;44.714;37.756;2023-10-19T00:04:06;10.67;68.55
75380;HTU21D;65641;44.714;37.756;2023-10-19T00:05:27;10.67;68.68
75380;HTU21D;65641;44.714;37.756;2023-10-19T00:07:08;10.67;68.63
75380;HTU21D;65641;44.714;37.756;2023-10-19T00:08:35;10.64;68.75
75380;HTU21D;65641;44.714;37.756;2023-10-19T00:10:16;10.60;68.75
75380;HTU21D;65641;44.714;37.756;2023-10-19T00:11:20;10.58;68.66
75380;HTU21D;65641;44.714;37.756;2023-10-19T00:12:27;10.59;68.78
75380;HTU21D;65641;44.714;37.756;2023-10-19T00:13:31;10.57;68.73
75380;HTU21D;65641;44.714;37.756;2023-10-19T00:14:57;10.55;68.80
75380;HTU21D;65641;44.714;37.756;2023-10-19T00:16:20;10.53;68.92
75380;HTU21D;65641;44.714;37.756;2023-10-19T00:17:31;10.51;68.87
75380;HTU21D;65641;44.714;37.756;2023-10-19T00:18:35;10.50;68.99
75380;HTU21D;65641;44.714;37.756;2023-10-19T00:19:39;10.49;68.88
75380;HTU21D;65641;44.714;37.756;2023-10-19T00:20:50;10.45;68.71
75380;HTU21D;65641;44.714;37.756;2023-10-19T00:21:56;10.45;68.83
75380;HTU21D;65641;44.714;37.756;2023-10-19T00:23:12;10.43;68.83
75380;HTU21D;65641;44.714;37.756;2023-10-19T00:24:24;10.43;68.84
75380;HTU21D;65641;44.714;37.756;2023-10-19T00:25:27;10.42;69.00
75380;HTU21D;65641;44.714;37.756;2023-10-19T00:26:31;10.43;69.00
75380;HTU21D;65641;44.714;37.756;2023-10-19T00:27:53;10.43;68.94
75380;HTU21D;65641;44.714;37.756;2023-10-19T00:29:14;10.42;68.92
75380;HTU21D;65641;44.714;37.756;2023-10-19T00:30:43;10.40;68.84
75380;HTU21D;65641;44.714;37.756;2023-10-19T00:32:06;10.37;68.79
75380;HTU21D;65641;44.714;37.756;2023-10-19T00:33:16;10.38;68.87
75380;HTU21D;65641;44.714;37.756;2023-10-19T00:34:21;10.36;68.89
75380;HTU21D;65641;44.714;37.756;2023-10-19T00:35:24;10.37;68.75
75380;HTU21D;65641;44.714;37.756;2023-10-19T00:36:30;10.35;68.81
75380;HTU21D;65641;44.714;37.756;2023-10-19T00:37:35;10.31;68.91
75380;HTU21D;65641;44.714;37.756;2023-10-19T00:38:45;10.31;68.85
75380;HTU21D;65641;44.714;37.756;2023-10-19T00:40:11;10.30;69.03
75380;HTU21D;65641;44.714;37.756;2023-10-19T00:41:51;10.30;68.94
75380;HTU21D;65641;44.714;37.756;2023-10-19T00:43:26;10.28;68.97
75380;HTU21D;65641;44.714;37.756;2023-10-19T00:44:30;10.28;68.87
75380;HTU21D;65641;44.714;37.756;2023-10-19T00:46:00;10.27;68.76
75380;HTU21D;65641;44.714;37.756;2023-10-19T00:47:26;10.26;68.95
75380;HTU21D;65641;44.714;37.756;2023-10-19T00:48:56;10.26;68.84
75380;HTU21D;65641;44.714;37.756;2023-10-19T00:50:19;10.27;68.76
75380;HTU21D;65641;44.714;37.756;2023-10-19T00:51:36;10.26;68.93
75380;HTU21D;65641;44.714;37.756;2023-10-19T00:52:58;10.26;68.96
75380;HTU21D;65641;44.714;37.756;2023-10-19T00:54:25;10.26;68.96
75380;HTU21D;65641;44.714;37.756;2023-10-19T00:55:37;10.25;69.00
75380;HTU21D;65641;44.714;37.756;2023-10-19T00:56:46;10.24;68.90
75380;HTU21D;65641;44.714;37.756;2023-10-19T00:57:53;10.23;68.93
75380;HTU21D;65641;44.714;37.756;2023-10-19T00:58:58;10.24;69.05
75380;HTU21D;65641;44.714;37.756;2023-10-19T01:00:16;10.24;69.12
75380;HTU21D;65641;44.714;37.756;2023-10-19T01:01:33;10.23;69.01
75380;HTU21D;65641;44.714;37.756;2023-10-19T01:03:20;10.24;68.96
75380;HTU21D;65641;44.714;37.756;2023-10-19T01:04:23;10.23;68.94
75380;HTU21D;65641;44.714;37.756;2023-10-19T01:05:28;10.23;68.84
75380;HTU21D;65641;44.714;37.756;2023-10-19T01:06:41;10.24;69.00
75380;HTU21D;65641;44.714;37.756;2023-10-19T01:08:06;10.24;68.94
75380;HTU21D;65641;44.714;37.756;2023-10-19T01:10:05;10.24;68.98
75380;HTU21D;65641;44.714;37.756;2023-10-19T01:11:30;10.24;68.69
75380;HTU21D;65641;44.714;37.756;2023-10-19T01:12:56;10.24;69.07
75380;HTU21D;65641;44.714;37.756;2023-10-19T01:14:18;10.25;68.91
75380;HTU21D;65641;44.714;37.756;2023-10-19T01:15:39;10.26;68.81
75380;HTU21D;65641;44.714;37.756;2023-10-19T01:16:42;10.25;68.90
75380;HTU21D;65641;44.714;37.756;2023-10-19T01:17:50;10.25;68.92
75380;HTU21D;65641;44.714;37.756;2023-10-19T01:19:18;10.25;68.91
75380;HTU21D;65641;44.714;37.756;2023-10-19T01:20:30;10.27;68.84
75380;HTU21D;65641;44.714;37.756;2023-10-19T01:21:58;10.27;68.93
75380;HTU21D;65641;44.714;37.756;2023-10-19T01:23:07;10.29;68.94
75380;HTU21D;65641;44.714;37.756;2023-10-19T01:24:13;10.28;68.84
75380;HTU21D;65641;44.714;37.756;2023-10-19T01:25:26;10.27;68.80
75380;HTU21D;65641;44.714;37.756;2023-10-19T01:26:56;10.25;68.87
75380;HTU21D;65641;44.714;37.756;2023-10-19T01:28:01;10.25;68.84
75380;HTU21D;65641;44.714;37.756;2023-10-19T01:29:28;10.23;68.86
75380;HTU21D;65641;44.714;37.756;2023-10-19T01:30:50;10.22;68.87
75380;HTU21D;65641;44.714;37.756;2023-10-19T01:31:55;10.23;68.93
75380;HTU21D;65641;44.714;37.756;2023-10-19T01:32:59;10.22;68.92
75380;HTU21D;65641;44.714;37.756;2023-10-19T01:34:02;10.20;68.87
75380;HTU21D;65641;44.714;37.756;2023-10-19T01:35:09;10.19;68.65
75380;HTU21D;65641;44.714;37.756;2023-10-19T01:36:49;10.18;68.77
75380;HTU21D;65641;44.714;37.756;2023-10-19T01:38:17;10.19;68.79
75380;HTU21D;65641;44.714;37.756;2023-10-19T01:39:20;10.18;68.75
75380;HTU21D;65641;44.714;37.756;2023-10-19T01:40:23;10.16;68.78
75380;HTU21D;65641;44.714;37.756;2023-10-19T01:41:45;10.16;68.52
75380;HTU21D;65641;44.714;37.756;2023-10-19T01:43:26;10.16;68.67
75380;HTU21D;65641;44.714;37.756;2023-10-19T01:44:54;10.16;68.62
75380;HTU21D;65641;44.714;37.756;2023-10-19T01:46:35;10.16;68.61
75380;HTU21D;65641;44.714;37.756;2023-10-19T01:47:58;10.20;68.65
75380;HTU21D;65641;44.714;37.756;2023-10-19T01:49:21;10.20;68.69
75380;HTU21D;65641;44.714;37.756;2023-10-19T01:50:31;10.20;68.67
75380;HTU21D;65641;44.714;37.756;2023-10-19T01:51:52;10.21;68.60
75380;HTU21D;65641;44.714;37.756;2023-10-19T01:52:58;10.23;68.52
75380;HTU21D;65641;44.714;37.756;2023-10-19T01:54:04;10.22;68.50
75380;HTU21D;65641;44.714;37.756;2023-10-19T01:55:09;10.23;68.48
75380;HTU21D;65641;44.714;37.756;2023-10-19T01:56:31;10.25;68.68
75380;HTU21D;65641;44.714;37.756;2023-10-19T01:57:54;10.25;68.57
75380;HTU21D;65641;44.714;37.756;2023-10-19T01:58:57;10.24;68.39
75380;HTU21D;65641;44.714;37.756;2023-10-19T02:00:19;10.23;68.39
75380;HTU21D;65641;44.714;37.756;2023-10-19T02:01:27;10.25;68.43
75380;HTU21D;65641;44.714;37.756;2023-10-19T02:02:30;10.25;68.31
75380;HTU21D;65641;44.714;37.756;2023-10-19T02:03:53;10.23;68.27
75380;HTU21D;65641;44.714;37.756;2023-10-19T02:05:16;10.22;68.33
75380;HTU21D;65641;44.714;37.756;2023-10-19T02:06:38;10.23;68.23
75380;HTU21D;65641;44.714;37.756;2023-10-19T02:07:43;10.25;68.30
75380;HTU21D;65641;44.714;37.756;2023-10-19T02:08:51;10.23;68.26
75380;HTU21D;65641;44.714;37.756;2023-10-19T02:09:56;10.24;68.13
75380;HTU21D;65641;44.714;37.756;2023-10-19T02:10:59;10.25;68.17
75380;HTU21D;65641;44.714;37.756;2023-10-19T02:12:12;10.25;68.11
75380;HTU21D;65641;44.714;37.756;2023-10-19T02:13:16;10.23;68.09
75380;HTU21D;65641;44.714;37.756;2023-10-19T02:14:20;10.24;68.29
75380;HTU21D;65641;44.714;37.756;2023-10-19T02:16:00;10.25;68.18
75380;HTU21D;65641;44.714;37.756;2023-10-19T02:17:27;10.25;68.26
75380;HTU21D;65641;44.714;37.756;2023-10-19T02:18:33;10.27;68.24
75380;HTU21D;65641;44.714;37.756;2023-10-19T02:19:57;10.26;68.07
75380;HTU21D;65641;44.714;37.756;2023-10-19T02:21:01;10.25;68.11
75380;HTU21D;65641;44.714;37.756;2023-10-19T02:22:09;10.26;68.15
75380;HTU21D;65641;44.714;37.756;2023-10-19T02:23:15;10.26;67.98
75380;HTU21D;65641;44.714;37.756;2023-10-19T02:24:57;10.23;67.88
75380;HTU21D;65641;44.714;37.756;2023-10-19T02:26:20;10.23;67.97
75380;HTU21D;65641;44.714;37.756;2023-10-19T02:27:26;10.22;68.02
75380;HTU21D;65641;44.714;37.756;2023-10-19T02:28:55;10.21;67.79
75380;HTU21D;65641;44.714;37.756;2023-10-19T02:30:21;10.20;67.99
75380;HTU21D;65641;44.714;37.756;2023-10-19T02:31:43;10.19;68.01
75380;HTU21D;65641;44.714;37.756;2023-10-19T02:32:47;10.20;68.04
75380;HTU21D;65641;44.714;37.756;2023-10-19T02:33:52;10.20;68.07
75380;HTU21D;65641;44.714;37.756;2023-10-19T02:35:05;10.21;68.27
75380;HTU21D;65641;44.714;37.756;2023-10-19T02:36:08;10.20;67.98
75380;HTU21D;65641;44.714;37.756;2023-10-19T02:37:15;10.19;67.96
75380;HTU21D;65641;44.714;37.756;2023-10-19T02:38:19;10.20;68.07
75380;HTU21D;65641;44.714;37.756;2023-10-19T02:39:25;10.20;67.96
75380;HTU21D;65641;44.714;37.756;2023-10-19T02:40:31;10.21;67.75
75380;HTU21D;65641;44.714;37.756;2023-10-19T02:41:52;10.20;67.86
75380;HTU21D;65641;44.714;37.756;2023-10-19T02:43:32;10.22;68.01
75380;HTU21D;65641;44.714;37.756;2023-10-19T02:45:14;10.24;67.93
75380;HTU21D;65641;44.714;37.756;2023-10-19T02:46:23;10.25;68.07
75380;HTU21D;65641;44.714;37.756;2023-10-19T02:47:27;10.26;68.08
75380;HTU21D;65641;44.714;37.756;2023-10-19T02:48:31;10.26;68.01
75380;HTU21D;65641;44.714;37.756;2023-10-19T02:49:35;10.25;67.91
75380;HTU21D;65641;44.714;37.756;2023-10-19T02:50:46;10.25;67.92
75380;HTU21D;65641;44.714;37.756;2023-10-19T02:52:07;10.26;67.98
75380;HTU21D;65641;44.714;37.756;2023-10-19T02:53:10;10.27;67.97
75380;HTU21D;65641;44.714;37.756;2023-10-19T02:54:18;10.28;68.02
75380;HTU21D;65641;44.714;37.756;2023-10-19T02:55:22;10.28;67.95
75380;HTU21D;65641;44.714;37.756;2023-10-19T02:56:44;10.29;68.01
75380;HTU21D;65641;44.714;37.756;2023-10-19T02:57:51;10.27;68.01
75380;HTU21D;65641;44.714;37.756;2023-10-19T02:58:54;10.29;68.17
75380;HTU21D;65641;44.714;37.756;2023-10-19T02:59:57;10.27;68.14
75380;HTU21D;65641;44.714;37.756;2023-10-19T03:01:20;10.28;68.20
75380;HTU21D;65641;44.714;37.756;2023-10-19T03:02:31;10.27;68.24
75380;HTU21D;65641;44.714;37.756;2023-10-19T03:03:54;10.27;68.26
75380;HTU21D;65641;44.714;37.756;2023-10-19T03:05:23;10.25;68.27
75380;HTU21D;65641;44.714;37.756;2023-10-19T03:06:54;10.24;68.32
75380;HTU21D;65641;44.714;37.756;2023-10-19T03:08:05;10.23;68.27
75380;HTU21D;65641;44.714;37.756;2023-10-19T03:09:10;10.22;68.33
75380;HTU21D;65641;44.714;37.756;2023-10-19T03:10:16;10.22;68.36
75380;HTU21D;65641;44.714;37.756;2023-10-19T03:11:42;10.21;68.34
75380;HTU21D;65641;44.714;37.756;2023-10-19T03:12:46;10.20;68.40
75380;HTU21D;65641;44.714;37.756;2023-10-19T03:14:09;10.19;68.40
75380;HTU21D;65641;44.714;37.756;2023-10-19T03:15:12;10.20;68.46
75380;HTU21D;65641;44.714;37.756;2023-10-19T03:16:21;10.18;68.33
75380;HTU21D;65641;44.714;37.756;2023-10-19T03:17:28;10.16;68.34
75380;HTU21D;65641;44.714;37.756;2023-10-19T03:18:35;10.15;68.45
75380;HTU21D;65641;44.714;37.756;2023-10-19T03:19:56;10.16;68.40
75380;HTU21D;65641;44.714;37.756;2023-10-19T03:21:03;10.15;68.29
75380;HTU21D;65641;44.714;37.756;2023-10-19T03:22:25;10.15;68.43
75380;HTU21D;65641;44.714;37.756;2023-10-19T03:23:31;10.13;68.54
75380;HTU21D;65641;44.714;37.756;2023-10-19T03:24:36;10.14;68.54
75380;HTU21D;65641;44.714;37.756;2023-10-19T03:25:53;10.13;68.58
75380;HTU21D;65641;44.714;37.756;2023-10-19T03:27:33;10.11;68.71
75380;HTU21D;65641;44.714;37.756;2023-10-19T03:28:37;10.12;68.70
75380;HTU21D;65641;44.714;37.756;2023-10-19T03:29:42;10.13;68.65
75380;HTU21D;65641;44.714;37.756;2023-10-19T03:30:49;10.13;68.42
75380;HTU21D;65641;44.714;37.756;2023-10-19T03:31:52;10.13;68.51
75380;HTU21D;65641;44.714;37.756;2023-10-19T03:33:14;10.12;68.37
75380;HTU21D;65641;44.714;37.756;2023-10-19T03:34:21;10.12;68.54
75380;HTU21D;65641;44.714;37.756;2023-10-19T03:35:26;10.10;68.55
75380;HTU21D;65641;44.714;37.756;2023-10-19T03:36:29;10.11;68.46
75380;HTU21D;65641;44.714;37.756;2023-10-19T03:37:41;10.11;68.28
75380;HTU21D;65641;44.714;37.756;2023-10-19T03:39:03;10.09;68.46
75380;HTU21D;65641;44.714;37.756;2023-10-19T03:40:43;10.09;68.36
75380;HTU21D;65641;44.714;37.756;2023-10-19T03:42:12;10.09;68.50
75380;HTU21D;65641;44.714;37.756;2023-10-19T03:43:35;10.08;68.55
75380;HTU21D;65641;44.714;37.756;2023-10-19T03:44:43;10.08;68.60
75380;HTU21D;65641;44.714;37.756;2023-10-19T03:45:52;10.09;68.65
75380;HTU21D;65641;44.714;37.756;2023-10-19T03:47:35;10.08;68.64
75380;HTU21D;65641;44.714;37.756;2023-10-19T03:48:39;10.08;68.59
75380;HTU21D;65641;44.714;37.756;2023-10-19T03:49:42;10.06;68.46
75380;HTU21D;65641;44.714;37.756;2023-10-19T03:50:50;10.07;68.61
75380;HTU21D;65641;44.714;37.756;2023-10-19T03:52:13;10.08;68.56
75380;HTU21D;65641;44.714;37.756;2023-10-19T03:53:16;10.07;68.58
75380;HTU21D;65641;44.714;37.756;2023-10-19T03:54:38;10.09;68.46
75380;HTU21D;65641;44.714;37.756;2023-10-19T03:55:45;10.08;68.37
75380;HTU21D;65641;44.714;37.756;2023-10-19T03:56:50;10.08;68.28
75380;HTU21D;65641;44.714;37.756;2023-10-19T03:57:53;10.06;68.13
75380;HTU21D;65641;44.714;37.756;2023-10-19T03:59:18;10.08;68.25
75380;HTU21D;65641;44.714;37.756;2023-10-19T04:00:21;10.08;67.98
75380;HTU21D;65641;44.714;37.756;2023-10-19T04:01:28;10.09;68.04
75380;HTU21D;65641;44.714;37.756;2023-10-19T04:02:34;10.09;68.07
75380;HTU21D;65641;44.714;37.756;2023-10-19T04:03:41;10.12;67.91
75380;HTU21D;65641;44.714;37.756;2023-10-19T04:04:44;10.12;67.85
75380;HTU21D;65641;44.714;37.756;2023-10-19T04:05:49;10.15;68.02
75380;HTU21D;65641;44.714;37.756;2023-10-19T04:07:11;10.19;67.93
75380;HTU21D;65641;44.714;37.756;2023-10-19T04:08:25;10.21;67.81
75380;HTU21D;65641;44.714;37.756;2023-10-19T04:09:51;10.22;67.72
75380;HTU21D;65641;44.714;37.756;2023-10-19T04:11:13;10.24;67.75
75380;HTU21D;65641;44.714;37.756;2023-10-19T04:12:42;10.26;67.48
75380;HTU21D;65641;44.714;37.756;2023-10-19T04:13:49;10.28;67.61
75380;HTU21D;65641;44.714;37.756;2023-10-19T04:15:18;10.31;67.39
75380;HTU21D;65641;44.714;37.756;2023-10-19T04:16:23;10.34;67.40
75380;HTU21D;65641;44.714;37.756;2023-10-19T04:17:26;10.35;67.51
75380;HTU21D;65641;44.714;37.756;2023-10-19T04:18:31;10.36;67.29
75380;HTU21D;65641;44.714;37.756;2023-10-19T04:19:42;10.37;67.13
75380;HTU21D;65641;44.714;37.756;2023-10-19T04:20:46;10.37;67.03
75380;HTU21D;65641;44.714;37.756;2023-10-19T04:21:55;10.38;66.91
75380;HTU21D;65641;44.714;37.756;2023-10-19T04:22:58;10.38;66.81
75380;HTU21D;65641;44.714;37.756;2023-10-19T04:24:08;10.39;66.88
75380;HTU21D;65641;44.714;37.756;2023-10-19T04:25:55;10.44;66.82
75380;HTU21D;65641;44.714;37.756;2023-10-19T04:26:59;10.46;66.82
75380;HTU21D;65641;44.714;37.756;2023-10-19T04:28:04;10.49;66.67
75380;HTU21D;65641;44.714;37.756;2023-10-19T04:29:07;10.51;66.56
75380;HTU21D;65641;44.714;37.756;2023-10-19T04:30:19;10.53;66.67
75380;HTU21D;65641;44.714;37.756;2023-10-19T04:31:25;10.55;66.54
75380;HTU21D;65641;44.714;37.756;2023-10-19T04:32:28;10.57;66.36
75380;HTU21D;65641;44.714;37.756;2023-10-19T04:33:52;10.56;66.10
75380;HTU21D;65641;44.714;37.756;2023-10-19T04:34:57;10.59;66.34
75380;HTU21D;65641;44.714;37.756;2023-10-19T04:36:01;10.63;66.26
75380;HTU21D;65641;44.714;37.756;2023-10-19T04:37:04;10.64;66.04
75380;HTU21D;65641;44.714;37.756;2023-10-19T04:38:09;10.66;66.01
75380;HTU21D;65641;44.714;37.756;2023-10-19T04:39:49;10.69;66.02
75380;HTU21D;65641;44.714;37.756;2023-10-19T04:40:53;10.71;65.69
75380;HTU21D;65641;44.714;37.756;2023-10-19T04:42:15;10.71;65.82
75380;HTU21D;65641;44.714;37.756;2023-10-19T04:43:38;10.73;65.75
75380;HTU21D;65641;44.714;37.756;2023-10-19T04:44:42;10.79;65.86
75380;HTU21D;65641;44.714;37.756;2023-10-19T04:45:45;10.81;65.84
75380;HTU21D;65641;44.714;37.756;2023-10-19T04:47:08;10.83;65.67
75380;HTU21D;65641;44.714;37.756;2023-10-19T04:48:11;10.85;65.61
75380;HTU21D;65641;44.714;37.756;2023-10-19T04:49:14;10.88;65.64
75380;HTU21D;65641;44.714;37.756;2023-10-19T04:50:36;10.90;65.49
75380;HTU21D;65641;44.714;37.756;2023-10-19T04:51:39;10.93;65.53
75380;HTU21D;65641;44.714;37.756;2023-10-19T04:52:42;10.94;65.41
75380;HTU21D;65641;44.714;37.756;2023-10-19T04:54:05;10.98;65.39
75380;HTU21D;65641;44.714;37.756;2023-10-19T04:55:11;10.99;65.30
75380;HTU21D;65641;44.714;37.756;2023-10-19T04:56:14;11.02;65.14
75380;HTU21D;65641;44.714;37.756;2023-10-19T04:57:36;11.04;65.21
75380;HTU21D;65641;44.714;37.756;2023-10-19T04:58:56;11.08;65.01
75380;HTU21D;65641;44.714;37.756;2023-10-19T04:59:59;11.11;65.24
75380;HTU21D;65641;44.714;37.756;2023-10-19T05:01:07;11.12;65.13
75380;HTU21D;65641;44.714;37.756;2023-10-19T05:02:29;11.16;65.00
75380;HTU21D;65641;44.714;37.756;2023-10-19T05:04:09;11.19;64.89
75380;HTU21D;65641;44.714;37.756;2023-10-19T05:05:12;11.23;64.86
75380;HTU21D;65641;44.714;37.756;2023-10-19T05:06:19;11.25;64.85
75380;HTU21D;65641;44.714;37.756;2023-10-19T05:07:24;11.27;64.66
75380;HTU21D;65641;44.714;37.756;2023-10-19T05:08:30;11.28;64.56
75380;HTU21D;65641;44.714;37.756;2023-10-19T05:09:35;11.30;64.43
75380;HTU21D;65641;44.714;37.756;2023-10-19T05:10:41;11.32;64.45
75380;HTU21D;65641;44.714;37.756;2023-10-19T05:11:44;11.34;64.32
75380;HTU21D;65641;44.714;37.756;2023-10-19T05:12:48;11.38;64.47
75380;HTU21D;65641;44.714;37.756;2023-10-19T05:14:10;11.42;64.47
75380;HTU21D;65641;44.714;37.756;2023-10-19T05:15:13;11.45;64.19
75380;HTU21D;65641;44.714;37.756;2023-10-19T05:16:53;11.48;64.17
75380;HTU21D;65641;44.714;37.756;2023-10-19T05:18:33;11.52;64.05
75380;HTU21D;65641;44.714;37.756;2023-10-19T05:20:00;11.57;63.79
75380;HTU21D;65641;44.714;37.756;2023-10-19T05:21:05;11.58;63.73
75380;HTU21D;65641;44.714;37.756;2023-10-19T05:22:09;11.61;63.79
75380;HTU21D;65641;44.714;37.756;2023-10-19T05:23:32;11.63;63.76
75380;HTU21D;65641;44.714;37.756;2023-10-19T05:24:36;11.66;63.69
75380;HTU21D;65641;44.714;37.756;2023-10-19T05:25:39;11.70;63.69
75380;HTU21D;65641;44.714;37.756;2023-10-19T05:26:42;11.71;63.73
75380;HTU21D;65641;44.714;37.756;2023-10-19T05:27:46;11.72;63.79
75380;HTU21D;65641;44.714;37.756;2023-10-19T05:29:07;11.75;63.66
75380;HTU21D;65641;44.714;37.756;2023-10-19T05:30:27;11.76;62.98
75380;HTU21D;65641;44.714;37.756;2023-10-19T05:31:51;11.79;63.69
75380;HTU21D;65641;44.714;37.756;2023-10-19T05:32:56;11.81;63.76
75380;HTU21D;65641;44.714;37.756;2023-10-19T05:34:36;11.85;63.66
75380;HTU21D;65641;44.714;37.756;2023-10-19T05:36:00;11.87;63.44
75380;HTU21D;65641;44.714;37.756;2023-10-19T05:37:04;11.90;63.43
75380;HTU21D;65641;44.714;37.756;2023-10-19T05:38:08;11.93;63.54
75380;HTU21D;65641;44.714;37.756;2023-10-19T05:39:11;11.96;63.44
75380;HTU21D;65641;44.714;37.756;2023-10-19T05:40:16;11.97;63.46
75380;HTU21D;65641;44.714;37.756;2023-10-19T05:41:43;12.01;63.36
75380;HTU21D;65641;44.714;37.756;2023-10-19T05:43:05;12.01;63.15
75380;HTU21D;65641;44.714;37.756;2023-10-19T05:44:08;12.03;63.13
75380;HTU21D;65641;44.714;37.756;2023-10-19T05:45:12;12.06;62.93
75380;HTU21D;65641;44.714;37.756;2023-10-19T05:46:20;12.07;62.90
75380;HTU21D;65641;44.714;37.756;2023-10-19T05:47:28;12.10;62.98
75380;HTU21D;65641;44.714;37.756;2023-10-19T05:48:32;12.11;62.99
75380;HTU21D;65641;44.714;37.756;2023-10-19T05:49:35;12.12;62.92
75380;HTU21D;65641;44.714;37.756;2023-10-19T05:50:57;12.12;62.53
75380;HTU21D;65641;44.714;37.756;2023-10-19T05:52:00;12.15;62.76
75380;HTU21D;65641;44.714;37.756;2023-10-19T05:53:41;12.18;62.80
75380;HTU21D;65641;44.714;37.756;2023-10-19T05:55:22;12.22;62.67
75380;HTU21D;65641;44.714;37.756;2023-10-19T05:56:43;12.23;62.62
75380;HTU21D;65641;44.714;37.756;2023-10-19T05:57:46;12.27;62.68
75380;HTU21D;65641;44.714;37.756;2023-10-19T05:58:49;12.27;62.26
75380;HTU21D;65641;44.714;37.756;2023-10-19T05:59:53;12.29;62.34
75380;HTU21D;65641;44.714;37.756;2023-10-19T06:01:01;12.30;62.49
75380;HTU21D;65641;44.714;37.756;2023-10-19T06:02:23;12.33;62.38
75380;HTU21D;65641;44.714;37.756;2023-10-19T06:03:44;12.36;62.39
75380;HTU21D;65641;44.714;37.756;2023-10-19T06:04:47;12.40;62.28
75380;HTU21D;65641;44.714;37.756;2023-10-19T06:05:50;12.42;62.07
75380;HTU21D;65641;44.714;37.756;2023-10-19T06:07:12;12.43;62.12
75380;HTU21D;65641;44.714;37.756;2023-10-19T06:08:15;12.46;62.01
75380;HTU21D;65641;44.714;37.756;2023-10-19T06:09:18;12.46;62.29
75380;HTU21D;65641;44.714;37.756;2023-10-19T06:10:40;12.50;62.01
75380;HTU21D;65641;44.714;37.756;2023-10-19T06:11:45;12.51;61.88
75380;HTU21D;65641;44.714;37.756;2023-10-19T06:13:07;12.53;61.95
75380;HTU21D;65641;44.714;37.756;2023-10-19T06:14:12;12.56;61.86
75380;HTU21D;65641;44.714;37.756;2023-10-19T06:15:53;12.57;61.76
75380;HTU21D;65641;44.714;37.756;2023-10-19T06:16:57;12.61;61.76
75380;HTU21D;65641;44.714;37.756;2023-10-19T06:18:00;12.62;61.86
75380;HTU21D;65641;44.714;37.756;2023-10-19T06:19:23;12.66;61.60
75380;HTU21D;65641;44.714;37.756;2023-10-19T06:20:26;12.69;61.70
75380;HTU21D;65641;44.714;37.756;2023-10-19T06:21:29;12.72;61.28
75380;HTU21D;65641;44.714;37.756;2023-10-19T06:22:36;12.73;61.56
75380;HTU21D;65641;44.714;37.756;2023-10-19T06:23:45;12.74;61.42
75380;HTU21D;65641;44.714;37.756;2023-10-19T06:25:07;12.78;61.50
75380;HTU21D;65641;44.714;37.756;2023-10-19T06:26:11;12.81;61.34
75380;HTU21D;65641;44.714;37.756;2023-10-19T06:27:52;12.85;61.39
75380;HTU21D;65641;44.714;37.756;2023-10-19T06:29:01;12.87;61.25
75380;HTU21D;65641;44.714;37.756;2023-10-19T06:30:24;12.93;61.41
75380;HTU21D;65641;44.714;37.756;2023-10-19T06:31:28;12.94;61.18
75380;HTU21D;65641;44.714;37.756;2023-10-19T06:32:35;12.97;61.26
75380;HTU21D;65641;44.714;37.756;2023-10-19T06:33:40;13.02;61.28
75380;HTU21D;65641;44.714;37.756;2023-10-19T06:34:44;13.05;61.21
75380;HTU21D;65641;44.714;37.756;2023-10-19T06:36:05;13.09;61.12
75380;HTU21D;65641;44.714;37.756;2023-10-19T06:37:08;13.14;61.13
75380;HTU21D;65641;44.714;37.756;2023-10-19T06:38:13;13.16;61.04
75380;HTU21D;65641;44.714;37.756;2023-10-19T06:39:53;13.22;60.93
75380;HTU21D;65641;44.714;37.756;2023-10-19T06:40:56;13.24;60.90
75380;HTU21D;65641;44.714;37.756;2023-10-19T06:41:59;13.29;60.91
75380;HTU21D;65641;44.714;37.756;2023-10-19T06:43:21;13.32;60.86
75380;HTU21D;65641;44.714;37.756;2023-10-19T06:44:45;13.35;60.80
75380;HTU21D;65641;44.714;37.756;2023-10-19T06:45:48;13.38;60.79
75380;HTU21D;65641;44.714;37.756;2023-10-19T06:47:10;13.41;60.70
75380;HTU21D;65641;44.714;37.756;2023-10-19T06:48:15;13.44;60.64
75380;HTU21D;65641;44.714;37.756;2023-10-19T06:49:18;13.50;60.49
75380;HTU21D;65641;44.714;37.756;2023-10-19T06:51:17;13.52;60.51
75380;HTU21D;65641;44.714;37.756;2023-10-19T06:52:20;13.55;60.55
75380;HTU21D;65641;44.714;37.756;2023-10-19T06:53:42;13.56;60.49
75380;HTU21D;65641;44.714;37.756;2023-10-19T06:54:45;13.59;60.43
75380;HTU21D;65641;44.714;37.756;2023-10-19T06:56:06;13.63;60.47
75380;HTU21D;65641;44.714;37.756;2023-10-19T06:57:11;13.66;60.47
75380;HTU21D;65641;44.714;37.756;2023-10-19T06:58:14;13.69;60.35
75380;HTU21D;65641;44.714;37.756;2023-10-19T06:59:17;13.73;60.36
75380;HTU21D;65641;44.714;37.756;2023-10-19T07:00:39;13.76;60.28
75380;HTU21D;65641;44.714;37.756;2023-10-19T07:02:08;13.79;60.21
75380;HTU21D;65641;44.714;37.756;2023-10-19T07:03:11;13.82;60.22
75380;HTU21D;65641;44.714;37.756;2023-10-19T07:04:14;13.83;60.25
75380;HTU21D;65641;44.714;37.756;2023-10-19T07:05:36;13.86;60.32
75380;HTU21D;65641;44.714;37.756;2023-10-19T07:06:39;13.90;60.16
75380;HTU21D;65641;44.714;37.756;2023-10-19T07:07:44;13.93;60.05
75380;HTU21D;65641;44.714;37.756;2023-10-19T07:09:12;13.97;60.01
75380;HTU21D;65641;44.714;37.756;2023-10-19T07:10:15;13.99;59.96
75380;HTU21D;65641;44.714;37.756;2023-10-19T07:11:20;14.01;59.98
75380;HTU21D;65641;44.714;37.756;2023-10-19T07:12:23;14.00;60.05
75380;HTU21D;65641;44.714;37.756;2023-10-19T07:13:45;14.03;60.16
75380;HTU21D;65641;44.714;37.756;2023-10-19T07:14:49;14.03;60.20
75380;HTU21D;65641;44.714;37.756;2023-10-19T07:16:11;14.06;60.23
75380;HTU21D;65641;44.714;37.756;2023-10-19T07:17:15;14.09;60.07
75380;HTU21D;65641;44.714;37.756;2023-10-19T07:18:24;14.15;59.98
75380;HTU21D;65641;44.714;37.756;2023-10-19T07:19:46;14.18;59.97
75380;HTU21D;65641;44.714;37.756;2023-10-19T07:21:28;14.18;60.15
75380;HTU21D;65641;44.714;37.756;2023-10-19T07:22:39;14.24;59.95
75380;HTU21D;65641;44.714;37.756;2023-10-19T07:23:45;14.27;59.79
75380;HTU21D;65641;44.714;37.756;2023-10-19T07:24:48;14.33;59.80
75380;HTU21D;65641;44.714;37.756;2023-10-19T07:26:10;14.35;59.69
75380;HTU21D;65641;44.714;37.756;2023-10-19T07:27:14;14.37;59.73
75380;HTU21D;65641;44.714;37.756;2023-10-19T07:28:38;14.39;59.67
75380;HTU21D;65641;44.714;37.756;2023-10-19T07:30:00;14.43;59.76
75380;HTU21D;65641;44.714;37.756;2023-10-19T07:31:04;14.47;59.71
75380;HTU21D;65641;44.714;37.756;2023-10-19T07:32:25;14.50;59.78
75380;HTU21D;65641;44.714;37.756;2023-10-19T07:33:47;14.53;59.61